sensor_id;sensor_type;location;lat;lon;timestamp;P1;durP1;ratioP1;P2;durP2;ratioP2
48813;SDS011;34634;44.108;3.074;2022-07-29T00:00:22;3.33;;;2.05;;
48813;SDS011;34634;44.108;3.074;2022-07-29T00:02:48;5.40;;;1.90;;
48813;SDS011;34634;44.108;3.074;2022-07-29T00:05:15;2.63;;;1.90;;
48813;SDS011;34634;44.108;3.074;2022-07-29T00:07:42;4.65;;;2.08;;
48813;SDS011;34634;44.108;3.074;2022-07-29T00:10:08;6.47;;;1.90;;
48813;SDS011;34634;44.108;3.074;2022-07-29T00:12:34;7.40;;;2.17;;
48813;SDS011;34634;44.108;3.074;2022-07-29T00:15:02;3.75;;;2.10;;
48813;SDS011;34634;44.108;3.074;2022-07-29T00:17:28;4.30;;;2.75;;
48813;SDS011;34634;44.108;3.074;2022-07-29T00:19:55;5.72;;;2.00;;
48813;SDS011;34634;44.108;3.074;2022-07-29T00:22:21;3.47;;;1.90;;
48813;SDS011;34634;44.108;3.074;2022-07-29T00:24:47;4.28;;;2.00;;
48813;SDS011;34634;44.108;3.074;2022-07-29T00:27:14;3.10;;;1.75;;
48813;SDS011;34634;44.108;3.074;2022-07-29T00:29:40;3.95;;;1.95;;
48813;SDS011;34634;44.108;3.074;2022-07-29T00:32:06;6.97;;;1.98;;
48813;SDS011;34634;44.108;3.074;2022-07-29T00:34:33;7.35;;;2.13;;
48813;SDS011;34634;44.108;3.074;2022-07-29T00:37:18;10.35;;;2.22;;
48813;SDS011;34634;44.108;3.074;2022-07-29T00:39:44;3.67;;;1.80;;
48813;SDS011;34634;44.108;3.074;2022-07-29T00:42:11;8.15;;;1.85;;
48813;SDS011;34634;44.108;3.074;2022-07-29T00:44:38;2.58;;;1.92;;
48813;SDS011;34634;44.108;3.074;2022-07-29T00:47:04;5.18;;;2.28;;
48813;SDS011;34634;44.108;3.074;2022-07-29T00:49:31;4.78;;;2.00;;
48813;SDS011;34634;44.108;3.074;2022-07-29T00:51:57;6.30;;;2.33;;
48813;SDS011;34634;44.108;3.074;2022-07-29T00:54:23;3.80;;;2.00;;
48813;SDS011;34634;44.108;3.074;2022-07-29T00:56:52;4.78;;;2.10;;
48813;SDS011;34634;44.108;3.074;2022-07-29T00:59:18;2.40;;;1.75;;
48813;SDS011;34634;44.108;3.074;2022-07-29T01:01:45;5.75;;;2.20;;
48813;SDS011;34634;44.108;3.074;2022-07-29T01:04:11;4.90;;;1.73;;
48813;SDS011;34634;44.108;3.074;2022-07-29T01:06:38;3.55;;;1.80;;
48813;SDS011;34634;44.108;3.074;2022-07-29T01:09:04;2.85;;;1.90;;
48813;SDS011;34634;44.108;3.074;2022-07-29T01:11:31;3.28;;;1.40;;
48813;SDS011;34634;44.108;3.074;2022-07-29T01:13:59;6.35;;;2.10;;
48813;SDS011;34634;44.108;3.074;2022-07-29T01:16:27;6.32;;;1.77;;
48813;SDS011;34634;44.108;3.074;2022-07-29T01:18:57;8.20;;;1.90;;
48813;SDS011;34634;44.108;3.074;2022-07-29T01:32:01;5.43;;;2.30;;
48813;SDS011;34634;44.108;3.074;2022-07-29T01:34:33;5.32;;;2.00;;
48813;SDS011;34634;44.108;3.074;2022-07-29T01:37:20;7.25;;;2.10;;
48813;SDS011;34634;44.108;3.074;2022-07-29T01:39:49;4.85;;;2.05;;
48813;SDS011;34634;44.108;3.074;2022-07-29T01:47:37;4.68;;;2.10;;
48813;SDS011;34634;44.108;3.074;2022-07-29T01:50:05;6.35;;;2.42;;
48813;SDS011;34634;44.108;3.074;2022-07-29T01:52:37;4.50;;;2.05;;
48813;SDS011;34634;44.108;3.074;2022-07-29T01:55:06;4.38;;;1.98;;
48813;SDS011;34634;44.108;3.074;2022-07-29T01:57:34;3.53;;;1.92;;
48813;SDS011;34634;44.108;3.074;2022-07-29T02:00:01;4.75;;;2.08;;
48813;SDS011;34634;44.108;3.074;2022-07-29T02:02:28;7.60;;;2.00;;
48813;SDS011;34634;44.108;3.074;2022-07-29T02:04:55;7.88;;;2.17;;
48813;SDS011;34634;44.108;3.074;2022-07-29T02:07:23;3.00;;;1.80;;
48813;SDS011;34634;44.108;3.074;2022-07-29T02:09:50;5.28;;;2.20;;
48813;SDS011;34634;44.108;3.074;2022-07-29T02:12:18;9.02;;;2.22;;
48813;SDS011;34634;44.108;3.074;2022-07-29T02:14:47;5.70;;;2.13;;
48813;SDS011;34634;44.108;3.074;2022-07-29T02:17:13;4.10;;;1.88;;
48813;SDS011;34634;44.108;3.074;2022-07-29T02:19:43;5.07;;;2.20;;
48813;SDS011;34634;44.108;3.074;2022-07-29T02:22:10;5.55;;;2.28;;
48813;SDS011;34634;44.108;3.074;2022-07-29T02:24:37;2.63;;;1.58;;
48813;SDS011;34634;44.108;3.074;2022-07-29T02:27:05;3.38;;;1.90;;
48813;SDS011;34634;44.108;3.074;2022-07-29T02:29:33;3.30;;;1.98;;
48813;SDS011;34634;44.108;3.074;2022-07-29T02:32:00;4.28;;;1.73;;
48813;SDS011;34634;44.108;3.074;2022-07-29T02:34:27;3.40;;;2.20;;
48813;SDS011;34634;44.108;3.074;2022-07-29T02:36:54;1.98;;;1.77;;
48813;SDS011;34634;44.108;3.074;2022-07-29T02:39:21;3.53;;;1.85;;
48813;SDS011;34634;44.108;3.074;2022-07-29T02:41:50;6.70;;;1.90;;
48813;SDS011;34634;44.108;3.074;2022-07-29T02:44:18;3.63;;;1.98;;
48813;SDS011;34634;44.108;3.074;2022-07-29T02:46:52;5.28;;;1.98;;
48813;SDS011;34634;44.108;3.074;2022-07-29T02:51:57;3.55;;;1.85;;
48813;SDS011;34634;44.108;3.074;2022-07-29T02:54:41;5.45;;;2.08;;
48813;SDS011;34634;44.108;3.074;2022-07-29T02:57:18;3.03;;;1.88;;
48813;SDS011;34634;44.108;3.074;2022-07-29T02:59:46;6.32;;;2.10;;
48813;SDS011;34634;44.108;3.074;2022-07-29T03:02:13;3.33;;;1.83;;
48813;SDS011;34634;44.108;3.074;2022-07-29T03:04:40;4.68;;;1.98;;
48813;SDS011;34634;44.108;3.074;2022-07-29T03:07:08;6.35;;;1.98;;
48813;SDS011;34634;44.108;3.074;2022-07-29T03:09:35;5.70;;;2.00;;
48813;SDS011;34634;44.108;3.074;2022-07-29T03:12:03;5.18;;;2.20;;
48813;SDS011;34634;44.108;3.074;2022-07-29T03:14:29;8.23;;;2.28;;
48813;SDS011;34634;44.108;3.074;2022-07-29T03:16:56;1.77;;;1.67;;
48813;SDS011;34634;44.108;3.074;2022-07-29T03:19:22;3.10;;;1.80;;
48813;SDS011;34634;44.108;3.074;2022-07-29T03:21:49;3.05;;;1.80;;
48813;SDS011;34634;44.108;3.074;2022-07-29T03:24:31;5.75;;;2.15;;
48813;SDS011;34634;44.108;3.074;2022-07-29T03:26:58;4.85;;;2.15;;
48813;SDS011;34634;44.108;3.074;2022-07-29T03:29:25;4.32;;;1.90;;
48813;SDS011;34634;44.108;3.074;2022-07-29T03:31:51;4.75;;;1.90;;
48813;SDS011;34634;44.108;3.074;2022-07-29T03:34:18;2.80;;;1.65;;
48813;SDS011;34634;44.108;3.074;2022-07-29T03:36:44;3.13;;;1.63;;
48813;SDS011;34634;44.108;3.074;2022-07-29T03:39:10;3.08;;;1.50;;
48813;SDS011;34634;44.108;3.074;2022-07-29T03:41:37;5.38;;;2.05;;
48813;SDS011;34634;44.108;3.074;2022-07-29T03:44:06;3.03;;;1.85;;
48813;SDS011;34634;44.108;3.074;2022-07-29T03:46:33;2.60;;;1.67;;
48813;SDS011;34634;44.108;3.074;2022-07-29T03:49:01;4.13;;;1.90;;
48813;SDS011;34634;44.108;3.074;2022-07-29T03:51:29;4.90;;;1.90;;
48813;SDS011;34634;44.108;3.074;2022-07-29T03:53:55;12.95;;;2.45;;
48813;SDS011;34634;44.108;3.074;2022-07-29T03:56:21;5.93;;;2.30;;
48813;SDS011;34634;44.108;3.074;2022-07-29T03:58:51;5.32;;;2.03;;
48813;SDS011;34634;44.108;3.074;2022-07-29T04:01:18;4.68;;;2.17;;
48813;SDS011;34634;44.108;3.074;2022-07-29T04:03:44;4.30;;;1.80;;
48813;SDS011;34634;44.108;3.074;2022-07-29T04:06:11;3.72;;;1.95;;
48813;SDS011;34634;44.108;3.074;2022-07-29T04:08:37;4.53;;;2.05;;
48813;SDS011;34634;44.108;3.074;2022-07-29T04:11:04;6.47;;;2.10;;
48813;SDS011;34634;44.108;3.074;2022-07-29T04:13:31;2.97;;;2.03;;
48813;SDS011;34634;44.108;3.074;2022-07-29T04:15:58;4.40;;;2.13;;
48813;SDS011;34634;44.108;3.074;2022-07-29T04:18:24;4.22;;;2.13;;
48813;SDS011;34634;44.108;3.074;2022-07-29T04:20:51;2.95;;;1.98;;
48813;SDS011;34634;44.108;3.074;2022-07-29T04:23:17;7.03;;;2.25;;
48813;SDS011;34634;44.108;3.074;2022-07-29T04:25:43;3.80;;;1.98;;
48813;SDS011;34634;44.108;3.074;2022-07-29T04:28:10;4.15;;;1.90;;
48813;SDS011;34634;44.108;3.074;2022-07-29T04:30:36;4.10;;;1.80;;
48813;SDS011;34634;44.108;3.074;2022-07-29T04:33:04;6.68;;;2.50;;
48813;SDS011;34634;44.108;3.074;2022-07-29T04:35:31;3.50;;;2.00;;
48813;SDS011;34634;44.108;3.074;2022-07-29T04:37:59;8.45;;;2.10;;
48813;SDS011;34634;44.108;3.074;2022-07-29T04:40:25;5.80;;;2.03;;
48813;SDS011;34634;44.108;3.074;2022-07-29T04:42:52;5.45;;;2.22;;
48813;SDS011;34634;44.108;3.074;2022-07-29T04:45:19;3.50;;;2.05;;
48813;SDS011;34634;44.108;3.074;2022-07-29T04:47:45;4.10;;;2.17;;
48813;SDS011;34634;44.108;3.074;2022-07-29T04:50:11;7.05;;;2.22;;
48813;SDS011;34634;44.108;3.074;2022-07-29T04:52:38;3.63;;;2.20;;
48813;SDS011;34634;44.108;3.074;2022-07-29T04:55:04;10.07;;;2.30;;
48813;SDS011;34634;44.108;3.074;2022-07-29T04:57:31;8.38;;;2.28;;
48813;SDS011;34634;44.108;3.074;2022-07-29T04:59:57;7.32;;;2.28;;
48813;SDS011;34634;44.108;3.074;2022-07-29T05:02:23;9.52;;;2.20;;
48813;SDS011;34634;44.108;3.074;2022-07-29T05:04:50;5.85;;;2.63;;
48813;SDS011;34634;44.108;3.074;2022-07-29T05:07:16;4.47;;;2.08;;
48813;SDS011;34634;44.108;3.074;2022-07-29T05:09:42;4.70;;;1.88;;
48813;SDS011;34634;44.108;3.074;2022-07-29T05:12:09;11.20;;;2.40;;
48813;SDS011;34634;44.108;3.074;2022-07-29T05:14:36;8.20;;;2.17;;
48813;SDS011;34634;44.108;3.074;2022-07-29T05:17:02;9.65;;;6.97;;
48813;SDS011;34634;44.108;3.074;2022-07-29T05:19:28;7.57;;;3.00;;
48813;SDS011;34634;44.108;3.074;2022-07-29T05:21:55;3.13;;;2.25;;
48813;SDS011;34634;44.108;3.074;2022-07-29T05:24:21;3.45;;;2.28;;
48813;SDS011;34634;44.108;3.074;2022-07-29T05:26:47;4.68;;;2.17;;
48813;SDS011;34634;44.108;3.074;2022-07-29T05:29:13;5.10;;;2.25;;
48813;SDS011;34634;44.108;3.074;2022-07-29T05:31:40;4.45;;;2.25;;
48813;SDS011;34634;44.108;3.074;2022-07-29T05:34:06;3.83;;;2.42;;
48813;SDS011;34634;44.108;3.074;2022-07-29T05:36:33;5.22;;;2.40;;
48813;SDS011;34634;44.108;3.074;2022-07-29T05:38:59;2.47;;;1.90;;
48813;SDS011;34634;44.108;3.074;2022-07-29T05:41:25;6.15;;;2.15;;
48813;SDS011;34634;44.108;3.074;2022-07-29T05:43:52;8.40;;;2.03;;
48813;SDS011;34634;44.108;3.074;2022-07-29T05:46:18;6.95;;;2.33;;
48813;SDS011;34634;44.108;3.074;2022-07-29T05:48:44;9.55;;;2.55;;
48813;SDS011;34634;44.108;3.074;2022-07-29T05:51:11;7.10;;;2.58;;
48813;SDS011;34634;44.108;3.074;2022-07-29T05:53:37;7.38;;;2.53;;
48813;SDS011;34634;44.108;3.074;2022-07-29T05:56:03;10.77;;;2.40;;
48813;SDS011;34634;44.108;3.074;2022-07-29T05:58:30;6.15;;;2.40;;
48813;SDS011;34634;44.108;3.074;2022-07-29T06:00:57;8.20;;;2.60;;
48813;SDS011;34634;44.108;3.074;2022-07-29T06:03:24;8.82;;;2.42;;
48813;SDS011;34634;44.108;3.074;2022-07-29T06:05:51;9.02;;;2.53;;
48813;SDS011;34634;44.108;3.074;2022-07-29T06:08:18;10.80;;;2.50;;
48813;SDS011;34634;44.108;3.074;2022-07-29T06:10:44;14.02;;;2.90;;
48813;SDS011;34634;44.108;3.074;2022-07-29T06:13:11;87.22;;;10.10;;
48813;SDS011;34634;44.108;3.074;2022-07-29T06:15:37;11.20;;;3.20;;
48813;SDS011;34634;44.108;3.074;2022-07-29T06:18:04;7.45;;;2.60;;
48813;SDS011;34634;44.108;3.074;2022-07-29T06:20:34;12.47;;;2.90;;
48813;SDS011;34634;44.108;3.074;2022-07-29T06:23:01;6.63;;;2.70;;
48813;SDS011;34634;44.108;3.074;2022-07-29T06:25:29;7.53;;;2.95;;
48813;SDS011;34634;44.108;3.074;2022-07-29T06:27:56;7.50;;;3.05;;
48813;SDS011;34634;44.108;3.074;2022-07-29T06:30:23;5.13;;;2.80;;
48813;SDS011;34634;44.108;3.074;2022-07-29T06:32:49;10.65;;;3.05;;
48813;SDS011;34634;44.108;3.074;2022-07-29T06:35:16;18.48;;;3.75;;
48813;SDS011;34634;44.108;3.074;2022-07-29T06:37:42;10.65;;;3.85;;
48813;SDS011;34634;44.108;3.074;2022-07-29T06:40:08;7.88;;;3.10;;
48813;SDS011;34634;44.108;3.074;2022-07-29T06:42:54;8.90;;;3.08;;
48813;SDS011;34634;44.108;3.074;2022-07-29T06:45:20;10.38;;;2.88;;
48813;SDS011;34634;44.108;3.074;2022-07-29T06:47:46;5.55;;;3.03;;
48813;SDS011;34634;44.108;3.074;2022-07-29T06:50:13;10.93;;;3.45;;
48813;SDS011;34634;44.108;3.074;2022-07-29T06:52:40;7.85;;;3.00;;
48813;SDS011;34634;44.108;3.074;2022-07-29T06:55:06;9.30;;;3.08;;
48813;SDS011;34634;44.108;3.074;2022-07-29T06:57:33;6.63;;;2.78;;
48813;SDS011;34634;44.108;3.074;2022-07-29T07:00:00;5.38;;;3.13;;
48813;SDS011;34634;44.108;3.074;2022-07-29T07:02:26;6.00;;;2.92;;
48813;SDS011;34634;44.108;3.074;2022-07-29T07:04:53;4.53;;;2.83;;
48813;SDS011;34634;44.108;3.074;2022-07-29T07:07:19;8.02;;;3.47;;
48813;SDS011;34634;44.108;3.074;2022-07-29T07:09:45;6.78;;;3.10;;
48813;SDS011;34634;44.108;3.074;2022-07-29T07:12:11;10.10;;;3.33;;
48813;SDS011;34634;44.108;3.074;2022-07-29T07:14:38;11.95;;;3.70;;
48813;SDS011;34634;44.108;3.074;2022-07-29T07:17:06;5.50;;;3.50;;
48813;SDS011;34634;44.108;3.074;2022-07-29T07:19:32;11.60;;;3.65;;
48813;SDS011;34634;44.108;3.074;2022-07-29T07:21:59;8.43;;;3.50;;
48813;SDS011;34634;44.108;3.074;2022-07-29T07:24:25;5.15;;;3.30;;
48813;SDS011;34634;44.108;3.074;2022-07-29T07:26:52;4.75;;;2.97;;
48813;SDS011;34634;44.108;3.074;2022-07-29T07:29:18;8.63;;;3.13;;
48813;SDS011;34634;44.108;3.074;2022-07-29T07:31:44;5.22;;;2.88;;
48813;SDS011;34634;44.108;3.074;2022-07-29T07:34:10;7.10;;;3.10;;
48813;SDS011;34634;44.108;3.074;2022-07-29T07:36:37;10.63;;;3.15;;
48813;SDS011;34634;44.108;3.074;2022-07-29T07:39:03;9.38;;;3.10;;
48813;SDS011;34634;44.108;3.074;2022-07-29T07:41:30;6.60;;;3.70;;
48813;SDS011;34634;44.108;3.074;2022-07-29T07:43:57;10.98;;;3.80;;
48813;SDS011;34634;44.108;3.074;2022-07-29T07:46:24;18.63;;;3.95;;
48813;SDS011;34634;44.108;3.074;2022-07-29T07:48:50;10.50;;;3.22;;
48813;SDS011;34634;44.108;3.074;2022-07-29T07:51:17;10.88;;;3.15;;
48813;SDS011;34634;44.108;3.074;2022-07-29T07:53:44;5.53;;;3.17;;
48813;SDS011;34634;44.108;3.074;2022-07-29T07:56:10;7.30;;;3.50;;
48813;SDS011;34634;44.108;3.074;2022-07-29T07:58:36;8.90;;;3.35;;
48813;SDS011;34634;44.108;3.074;2022-07-29T08:01:03;7.53;;;3.30;;
48813;SDS011;34634;44.108;3.074;2022-07-29T08:03:29;5.90;;;3.45;;
48813;SDS011;34634;44.108;3.074;2022-07-29T08:05:56;6.25;;;3.53;;
48813;SDS011;34634;44.108;3.074;2022-07-29T08:08:22;11.02;;;3.75;;
48813;SDS011;34634;44.108;3.074;2022-07-29T08:10:49;6.93;;;3.50;;
48813;SDS011;34634;44.108;3.074;2022-07-29T08:13:22;7.15;;;3.90;;
48813;SDS011;34634;44.108;3.074;2022-07-29T08:15:49;7.72;;;3.95;;
48813;SDS011;34634;44.108;3.074;2022-07-29T08:18:36;9.80;;;4.00;;
48813;SDS011;34634;44.108;3.074;2022-07-29T08:21:03;9.85;;;3.88;;
48813;SDS011;34634;44.108;3.074;2022-07-29T08:23:29;10.52;;;4.47;;
48813;SDS011;34634;44.108;3.074;2022-07-29T08:26:04;7.07;;;4.00;;
48813;SDS011;34634;44.108;3.074;2022-07-29T08:28:30;10.00;;;4.50;;
48813;SDS011;34634;44.108;3.074;2022-07-29T08:30:57;13.80;;;3.80;;
48813;SDS011;34634;44.108;3.074;2022-07-29T08:33:23;9.05;;;3.65;;
48813;SDS011;34634;44.108;3.074;2022-07-29T08:35:49;7.80;;;3.72;;
48813;SDS011;34634;44.108;3.074;2022-07-29T08:38:16;7.97;;;3.22;;
48813;SDS011;34634;44.108;3.074;2022-07-29T08:40:42;6.07;;;3.47;;
48813;SDS011;34634;44.108;3.074;2022-07-29T08:43:08;7.75;;;3.45;;
48813;SDS011;34634;44.108;3.074;2022-07-29T08:45:44;9.38;;;3.90;;
48813;SDS011;34634;44.108;3.074;2022-07-29T08:48:12;5.97;;;3.38;;
48813;SDS011;34634;44.108;3.074;2022-07-29T08:50:39;4.68;;;3.10;;
48813;SDS011;34634;44.108;3.074;2022-07-29T08:53:07;9.20;;;3.63;;
48813;SDS011;34634;44.108;3.074;2022-07-29T08:55:33;5.45;;;3.28;;
48813;SDS011;34634;44.108;3.074;2022-07-29T08:58:00;10.77;;;3.42;;
48813;SDS011;34634;44.108;3.074;2022-07-29T09:00:26;6.35;;;2.90;;
48813;SDS011;34634;44.108;3.074;2022-07-29T09:02:56;8.52;;;3.20;;
48813;SDS011;34634;44.108;3.074;2022-07-29T09:05:23;9.13;;;3.60;;
48813;SDS011;34634;44.108;3.074;2022-07-29T09:07:50;8.55;;;3.25;;
48813;SDS011;34634;44.108;3.074;2022-07-29T09:10:16;8.57;;;2.70;;
48813;SDS011;34634;44.108;3.074;2022-07-29T09:12:43;7.93;;;3.20;;
48813;SDS011;34634;44.108;3.074;2022-07-29T09:15:09;9.02;;;4.00;;
48813;SDS011;34634;44.108;3.074;2022-07-29T09:17:39;7.72;;;4.25;;
48813;SDS011;34634;44.108;3.074;2022-07-29T09:20:14;8.15;;;3.47;;
48813;SDS011;34634;44.108;3.074;2022-07-29T09:22:40;10.60;;;3.42;;
48813;SDS011;34634;44.108;3.074;2022-07-29T09:25:07;6.68;;;3.40;;
48813;SDS011;34634;44.108;3.074;2022-07-29T09:27:33;7.55;;;3.03;;
48813;SDS011;34634;44.108;3.074;2022-07-29T09:32:27;5.07;;;2.70;;
48813;SDS011;34634;44.108;3.074;2022-07-29T09:37:39;8.13;;;3.00;;
48813;SDS011;34634;44.108;3.074;2022-07-29T09:40:12;5.95;;;2.60;;
48813;SDS011;34634;44.108;3.074;2022-07-29T09:42:39;5.80;;;2.28;;
48813;SDS011;34634;44.108;3.074;2022-07-29T09:45:05;5.60;;;2.67;;
48813;SDS011;34634;44.108;3.074;2022-07-29T09:47:42;8.90;;;2.70;;
48813;SDS011;34634;44.108;3.074;2022-07-29T09:50:10;4.18;;;2.60;;
48813;SDS011;34634;44.108;3.074;2022-07-29T09:52:46;7.07;;;2.65;;
48813;SDS011;34634;44.108;3.074;2022-07-29T09:55:12;3.78;;;2.33;;
48813;SDS011;34634;44.108;3.074;2022-07-29T09:57:39;8.65;;;2.75;;
48813;SDS011;34634;44.108;3.074;2022-07-29T10:00:06;6.50;;;2.95;;
48813;SDS011;34634;44.108;3.074;2022-07-29T10:02:34;8.02;;;3.38;;
48813;SDS011;34634;44.108;3.074;2022-07-29T10:05:01;7.95;;;2.60;;
48813;SDS011;34634;44.108;3.074;2022-07-29T10:07:43;5.57;;;2.60;;
48813;SDS011;34634;44.108;3.074;2022-07-29T10:10:09;4.68;;;2.10;;
48813;SDS011;34634;44.108;3.074;2022-07-29T10:12:48;3.90;;;2.38;;
48813;SDS011;34634;44.108;3.074;2022-07-29T10:15:15;4.32;;;2.30;;
48813;SDS011;34634;44.108;3.074;2022-07-29T10:17:41;5.28;;;2.30;;
48813;SDS011;34634;44.108;3.074;2022-07-29T10:20:08;4.25;;;2.30;;
48813;SDS011;34634;44.108;3.074;2022-07-29T10:22:34;7.20;;;2.10;;
48813;SDS011;34634;44.108;3.074;2022-07-29T10:25:00;8.10;;;2.20;;
48813;SDS011;34634;44.108;3.074;2022-07-29T10:27:27;3.05;;;2.33;;
48813;SDS011;34634;44.108;3.074;2022-07-29T10:29:53;4.78;;;1.83;;
48813;SDS011;34634;44.108;3.074;2022-07-29T10:32:22;5.38;;;2.00;;
48813;SDS011;34634;44.108;3.074;2022-07-29T10:35:06;3.65;;;1.80;;
48813;SDS011;34634;44.108;3.074;2022-07-29T10:40:15;6.30;;;2.60;;
48813;SDS011;34634;44.108;3.074;2022-07-29T10:43:06;6.07;;;1.92;;
48813;SDS011;34634;44.108;3.074;2022-07-29T10:45:36;8.15;;;1.80;;
48813;SDS011;34634;44.108;3.074;2022-07-29T10:48:05;4.43;;;2.53;;
48813;SDS011;34634;44.108;3.074;2022-07-29T10:53:16;4.28;;;2.03;;
48813;SDS011;34634;44.108;3.074;2022-07-29T10:55:43;3.58;;;1.98;;
48813;SDS011;34634;44.108;3.074;2022-07-29T11:00:38;2.45;;;1.85;;
48813;SDS011;34634;44.108;3.074;2022-07-29T11:03:05;3.45;;;2.10;;
48813;SDS011;34634;44.108;3.074;2022-07-29T11:05:50;4.07;;;2.15;;
48813;SDS011;34634;44.108;3.074;2022-07-29T11:08:18;5.00;;;2.17;;
48813;SDS011;34634;44.108;3.074;2022-07-29T11:10:47;6.50;;;2.10;;
48813;SDS011;34634;44.108;3.074;2022-07-29T11:13:41;4.00;;;2.10;;
48813;SDS011;34634;44.108;3.074;2022-07-29T11:16:00;3.67;;;1.88;;
48813;SDS011;34634;44.108;3.074;2022-07-29T11:18:26;3.13;;;1.73;;
48813;SDS011;34634;44.108;3.074;2022-07-29T11:20:53;4.55;;;1.83;;
48813;SDS011;34634;44.108;3.074;2022-07-29T11:25:46;5.40;;;1.70;;
48813;SDS011;34634;44.108;3.074;2022-07-29T11:28:32;4.30;;;1.73;;
48813;SDS011;34634;44.108;3.074;2022-07-29T11:31:00;3.38;;;1.63;;
48813;SDS011;34634;44.108;3.074;2022-07-29T11:33:27;7.65;;;1.85;;
48813;SDS011;34634;44.108;3.074;2022-07-29T11:38:36;5.65;;;1.98;;
48813;SDS011;34634;44.108;3.074;2022-07-29T11:43:53;6.35;;;1.98;;
48813;SDS011;34634;44.108;3.074;2022-07-29T11:49:05;2.65;;;1.80;;
48813;SDS011;34634;44.108;3.074;2022-07-29T11:51:32;3.78;;;1.73;;
48813;SDS011;34634;44.108;3.074;2022-07-29T11:53:58;2.95;;;1.90;;
48813;SDS011;34634;44.108;3.074;2022-07-29T11:56:24;4.10;;;1.90;;
48813;SDS011;34634;44.108;3.074;2022-07-29T11:59:02;2.40;;;1.63;;
48813;SDS011;34634;44.108;3.074;2022-07-29T12:01:29;3.22;;;1.90;;
48813;SDS011;34634;44.108;3.074;2022-07-29T12:04:02;4.63;;;2.10;;
48813;SDS011;34634;44.108;3.074;2022-07-29T12:06:29;7.03;;;2.00;;
48813;SDS011;34634;44.108;3.074;2022-07-29T12:08:55;5.30;;;1.85;;
48813;SDS011;34634;44.108;3.074;2022-07-29T12:11:22;7.65;;;1.70;;
48813;SDS011;34634;44.108;3.074;2022-07-29T12:13:52;4.97;;;1.75;;
48813;SDS011;34634;44.108;3.074;2022-07-29T12:16:19;4.83;;;1.83;;
48813;SDS011;34634;44.108;3.074;2022-07-29T12:18:58;3.22;;;1.60;;
48813;SDS011;34634;44.108;3.074;2022-07-29T12:21:25;3.08;;;1.70;;
48813;SDS011;34634;44.108;3.074;2022-07-29T12:23:54;4.90;;;1.98;;
48813;SDS011;34634;44.108;3.074;2022-07-29T12:26:21;7.72;;;2.15;;
48813;SDS011;34634;44.108;3.074;2022-07-29T12:28:48;2.85;;;1.70;;
48813;SDS011;34634;44.108;3.074;2022-07-29T12:31:14;6.30;;;1.88;;
48813;SDS011;34634;44.108;3.074;2022-07-29T12:33:41;4.03;;;1.77;;
48813;SDS011;34634;44.108;3.074;2022-07-29T12:36:08;3.17;;;1.70;;
48813;SDS011;34634;44.108;3.074;2022-07-29T12:38:34;3.13;;;1.88;;
48813;SDS011;34634;44.108;3.074;2022-07-29T12:41:01;9.50;;;1.83;;
48813;SDS011;34634;44.108;3.074;2022-07-29T12:43:28;3.17;;;1.60;;
48813;SDS011;34634;44.108;3.074;2022-07-29T12:45:55;4.05;;;1.95;;
48813;SDS011;34634;44.108;3.074;2022-07-29T12:48:35;4.60;;;1.83;;
48813;SDS011;34634;44.108;3.074;2022-07-29T12:51:03;3.83;;;1.65;;
48813;SDS011;34634;44.108;3.074;2022-07-29T12:53:29;4.47;;;1.88;;
48813;SDS011;34634;44.108;3.074;2022-07-29T12:55:56;3.33;;;1.52;;
48813;SDS011;34634;44.108;3.074;2022-07-29T12:58:32;3.47;;;2.08;;
48813;SDS011;34634;44.108;3.074;2022-07-29T13:01:06;5.63;;;1.50;;
48813;SDS011;34634;44.108;3.074;2022-07-29T13:09:15;3.30;;;1.85;;
48813;SDS011;34634;44.108;3.074;2022-07-29T13:11:46;3.33;;;1.83;;
48813;SDS011;34634;44.108;3.074;2022-07-29T13:14:13;7.57;;;1.75;;
48813;SDS011;34634;44.108;3.074;2022-07-29T13:19:38;5.18;;;2.30;;
48813;SDS011;34634;44.108;3.074;2022-07-29T13:22:08;5.95;;;1.77;;
48813;SDS011;34634;44.108;3.074;2022-07-29T13:27:23;2.92;;;1.75;;
48813;SDS011;34634;44.108;3.074;2022-07-29T13:29:50;7.63;;;1.90;;
48813;SDS011;34634;44.108;3.074;2022-07-29T13:32:18;2.15;;;1.60;;
48813;SDS011;34634;44.108;3.074;2022-07-29T13:34:44;2.08;;;1.40;;
48813;SDS011;34634;44.108;3.074;2022-07-29T13:37:11;3.30;;;1.90;;
48813;SDS011;34634;44.108;3.074;2022-07-29T13:39:37;2.85;;;1.40;;
48813;SDS011;34634;44.108;3.074;2022-07-29T13:42:04;3.05;;;1.85;;
48813;SDS011;34634;44.108;3.074;2022-07-29T13:44:30;3.78;;;1.77;;
48813;SDS011;34634;44.108;3.074;2022-07-29T13:46:57;3.08;;;1.70;;
48813;SDS011;34634;44.108;3.074;2022-07-29T13:49:25;2.65;;;1.80;;
48813;SDS011;34634;44.108;3.074;2022-07-29T13:51:51;2.40;;;1.60;;
48813;SDS011;34634;44.108;3.074;2022-07-29T13:54:18;4.20;;;1.90;;
48813;SDS011;34634;44.108;3.074;2022-07-29T13:56:44;5.28;;;1.70;;
48813;SDS011;34634;44.108;3.074;2022-07-29T13:59:10;4.28;;;1.88;;
48813;SDS011;34634;44.108;3.074;2022-07-29T14:01:37;2.47;;;1.83;;
48813;SDS011;34634;44.108;3.074;2022-07-29T14:04:06;10.20;;;2.10;;
48813;SDS011;34634;44.108;3.074;2022-07-29T14:06:33;5.30;;;1.80;;
48813;SDS011;34634;44.108;3.074;2022-07-29T14:08:59;2.95;;;1.75;;
48813;SDS011;34634;44.108;3.074;2022-07-29T14:11:26;4.15;;;2.03;;
48813;SDS011;34634;44.108;3.074;2022-07-29T14:13:52;5.65;;;1.95;;
48813;SDS011;34634;44.108;3.074;2022-07-29T14:16:18;4.00;;;2.00;;
48813;SDS011;34634;44.108;3.074;2022-07-29T14:18:44;10.85;;;2.00;;
48813;SDS011;34634;44.108;3.074;2022-07-29T14:21:11;7.07;;;1.90;;
48813;SDS011;34634;44.108;3.074;2022-07-29T14:23:37;2.53;;;1.80;;
48813;SDS011;34634;44.108;3.074;2022-07-29T14:26:04;5.80;;;1.88;;
48813;SDS011;34634;44.108;3.074;2022-07-29T14:28:30;4.78;;;2.00;;
48813;SDS011;34634;44.108;3.074;2022-07-29T14:30:57;2.78;;;1.92;;
48813;SDS011;34634;44.108;3.074;2022-07-29T14:33:23;5.65;;;1.83;;
48813;SDS011;34634;44.108;3.074;2022-07-29T14:35:49;2.65;;;1.77;;
48813;SDS011;34634;44.108;3.074;2022-07-29T14:38:16;2.58;;;1.92;;
48813;SDS011;34634;44.108;3.074;2022-07-29T14:40:42;2.78;;;1.90;;
48813;SDS011;34634;44.108;3.074;2022-07-29T14:43:08;3.55;;;1.80;;
48813;SDS011;34634;44.108;3.074;2022-07-29T14:45:35;6.00;;;2.28;;
48813;SDS011;34634;44.108;3.074;2022-07-29T14:48:01;3.47;;;2.28;;
48813;SDS011;34634;44.108;3.074;2022-07-29T14:50:27;3.58;;;1.90;;
48813;SDS011;34634;44.108;3.074;2022-07-29T14:52:54;2.47;;;1.75;;
48813;SDS011;34634;44.108;3.074;2022-07-29T14:55:20;5.13;;;1.85;;
48813;SDS011;34634;44.108;3.074;2022-07-29T14:57:47;4.28;;;2.20;;
48813;SDS011;34634;44.108;3.074;2022-07-29T15:00:13;8.75;;;2.22;;
48813;SDS011;34634;44.108;3.074;2022-07-29T15:02:40;2.97;;;2.10;;
48813;SDS011;34634;44.108;3.074;2022-07-29T15:05:06;3.35;;;1.80;;
48813;SDS011;34634;44.108;3.074;2022-07-29T15:07:32;4.35;;;1.98;;
48813;SDS011;34634;44.108;3.074;2022-07-29T15:09:59;6.80;;;2.20;;
48813;SDS011;34634;44.108;3.074;2022-07-29T15:12:25;2.45;;;1.92;;
48813;SDS011;34634;44.108;3.074;2022-07-29T15:14:51;12.55;;;1.90;;
48813;SDS011;34634;44.108;3.074;2022-07-29T15:17:18;4.32;;;1.60;;
48813;SDS011;34634;44.108;3.074;2022-07-29T15:19:45;5.32;;;1.85;;
48813;SDS011;34634;44.108;3.074;2022-07-29T15:22:11;3.15;;;1.67;;
48813;SDS011;34634;44.108;3.074;2022-07-29T15:24:40;3.30;;;1.70;;
48813;SDS011;34634;44.108;3.074;2022-07-29T15:27:07;3.45;;;1.75;;
48813;SDS011;34634;44.108;3.074;2022-07-29T15:29:42;6.00;;;1.88;;
48813;SDS011;34634;44.108;3.074;2022-07-29T15:32:09;5.85;;;1.70;;
48813;SDS011;34634;44.108;3.074;2022-07-29T15:34:36;4.30;;;1.67;;
